createdAt,value
2019-01-11T00:00:31.038Z,8.97
2019-01-11T00:02:57.024Z,7.57
2019-01-11T00:05:22.966Z,10.07
2019-01-11T00:07:48.957Z,7.03
2019-01-11T00:10:14.926Z,6.80
2019-01-11T00:12:41.177Z,6.53
2019-01-11T00:15:07.367Z,7.57
2019-01-11T00:17:33.322Z,6.67
2019-01-11T00:20:03.634Z,6.70
2019-01-11T00:22:29.603Z,6.50
2019-01-11T00:24:57.470Z,5.43
2019-01-11T00:27:23.626Z,5.20
2019-01-11T00:29:49.820Z,7.00
2019-01-11T00:32:15.774Z,8.00
2019-01-11T00:34:41.721Z,8.87
2019-01-11T00:37:07.700Z,9.47
2019-01-11T00:39:33.658Z,10.33
2019-01-11T00:41:59.622Z,7.57
2019-01-11T00:44:26.296Z,16.57
2019-01-11T00:46:52.287Z,16.87
2019-01-11T00:49:19.431Z,16.33
2019-01-11T00:51:45.426Z,20.73
2019-01-11T00:54:11.458Z,15.63
2019-01-11T00:56:38.586Z,10.47
2019-01-11T00:59:05.105Z,5.50
2019-01-11T01:01:31.048Z,5.40
2019-01-11T01:03:56.997Z,5.40
2019-01-11T01:06:23.519Z,5.10
2019-01-11T01:08:49.476Z,5.40
2019-01-11T01:11:15.421Z,5.30
2019-01-11T01:13:41.407Z,6.37
2019-01-11T01:16:07.356Z,5.17
2019-01-11T01:18:33.304Z,4.30
2019-01-11T01:20:59.494Z,4.00
2019-01-11T01:23:25.750Z,3.30
2019-01-11T01:25:52.215Z,3.40
2019-01-11T01:28:20.143Z,3.37
2019-01-11T01:30:46.098Z,4.03
2019-01-11T01:33:14.367Z,3.20
2019-01-11T01:35:40.358Z,3.87
2019-01-11T01:38:06.314Z,2.80
2019-01-11T01:40:32.342Z,2.70
2019-01-11T01:43:00.934Z,2.77
2019-01-11T01:45:26.969Z,2.70
2019-01-11T01:47:54.723Z,2.67
2019-01-11T01:50:20.758Z,2.53
2019-01-11T01:52:46.713Z,2.37
2019-01-11T01:55:14.183Z,2.60
2019-01-11T01:57:40.171Z,2.47
2019-01-11T02:00:09.823Z,2.70
2019-01-11T02:02:35.781Z,2.70
2019-01-11T02:05:02.684Z,3.10
2019-01-11T02:07:28.635Z,2.30
2019-01-11T02:09:54.595Z,2.40
2019-01-11T02:12:20.613Z,2.40
2019-01-11T02:14:46.556Z,2.20
2019-01-11T02:17:13.920Z,2.60
2019-01-11T02:19:39.926Z,2.40
2019-01-11T02:22:06.088Z,2.27
2019-01-11T02:24:32.246Z,2.43
2019-01-11T02:26:58.528Z,2.43
2019-01-11T02:29:24.888Z,2.10
2019-01-11T02:31:51.137Z,2.20
2019-01-11T02:34:17.151Z,2.10
2019-01-11T02:36:45.027Z,2.30
2019-01-11T02:39:10.964Z,2.80
2019-01-11T02:41:36.939Z,1.90
2019-01-11T02:44:03.936Z,2.10
2019-01-11T02:46:29.874Z,2.57
2019-01-11T02:48:55.874Z,1.87
2019-01-11T02:51:21.828Z,2.00
2019-01-11T02:53:47.784Z,2.07
2019-01-11T02:56:15.388Z,1.70
2019-01-11T02:58:41.357Z,2.00
2019-01-11T03:01:07.301Z,1.83
2019-01-11T03:03:34.783Z,1.87
2019-01-11T03:06:00.748Z,1.80
2019-01-11T03:08:27.520Z,1.40
2019-01-11T03:10:53.514Z,1.40
2019-01-11T03:13:21.366Z,1.63
2019-01-11T03:15:47.328Z,1.50
2019-01-11T03:18:13.338Z,1.60
2019-01-11T03:20:39.291Z,1.87
2019-01-11T03:23:05.252Z,1.70
2019-01-11T03:25:31.226Z,1.80
2019-01-11T03:27:57.211Z,1.83
2019-01-11T03:30:23.958Z,1.30
2019-01-11T03:32:51.850Z,1.53
2019-01-11T03:35:18.609Z,1.80
2019-01-11T03:37:46.280Z,1.40
2019-01-11T03:40:14.594Z,1.47
2019-01-11T03:42:40.543Z,1.87
2019-01-11T03:45:10.223Z,2.33
2019-01-11T03:47:36.303Z,2.57
2019-01-11T03:50:05.552Z,2.00
2019-01-11T03:52:31.498Z,2.30
2019-01-11T03:54:57.493Z,3.50
2019-01-11T03:57:25.258Z,2.83
2019-01-11T03:59:51.215Z,2.80
2019-01-11T04:02:17.237Z,2.33
2019-01-11T04:04:43.179Z,2.10
2019-01-11T04:07:09.135Z,1.90
2019-01-11T04:09:35.111Z,2.43
2019-01-11T04:12:01.076Z,1.67
2019-01-11T04:14:27.021Z,2.10
2019-01-11T04:16:53.012Z,2.07
2019-01-11T04:19:18.981Z,2.27
2019-01-11T04:21:46.832Z,1.90
2019-01-11T04:24:14.769Z,2.00
2019-01-11T04:26:40.732Z,1.90
2019-01-11T04:29:06.983Z,1.80
2019-01-11T04:31:32.980Z,1.60
2019-01-11T04:33:58.951Z,2.07
2019-01-11T04:36:24.918Z,2.30
2019-01-11T04:38:51.099Z,1.70
2019-01-11T04:41:17.051Z,1.60
2019-01-11T04:43:43.006Z,1.63
2019-01-11T04:46:09.669Z,1.30
2019-01-11T04:48:35.614Z,1.37
2019-01-11T04:51:03.574Z,1.60
2019-01-11T04:53:29.563Z,1.30
2019-01-11T04:55:55.544Z,1.37
2019-01-11T04:58:21.516Z,2.10
2019-01-11T05:00:47.743Z,2.43
2019-01-11T05:03:13.695Z,1.50
2019-01-11T05:05:39.646Z,1.53
2019-01-11T05:08:06.725Z,1.60
2019-01-11T05:10:32.672Z,1.50
2019-01-11T05:13:00.550Z,2.03
2019-01-11T05:15:28.331Z,1.67
2019-01-11T05:17:55.490Z,1.60
2019-01-11T05:20:21.432Z,1.80
2019-01-11T05:22:49.339Z,1.60
2019-01-11T05:25:17.286Z,1.37
2019-01-11T05:27:43.246Z,3.00
2019-01-11T05:30:14.779Z,2.20
2019-01-11T05:32:40.843Z,2.63
2019-01-11T05:35:08.091Z,2.90
2019-01-11T05:37:34.078Z,2.10
2019-01-11T05:40:01.529Z,4.00
2019-01-11T05:42:27.586Z,2.80
2019-01-11T05:44:54.679Z,3.67
2019-01-11T05:47:20.951Z,1.70
2019-01-11T05:49:46.892Z,3.13
2019-01-11T05:52:12.924Z,1.60
2019-01-11T05:54:38.876Z,2.37
2019-01-11T05:57:05.227Z,3.60
2019-01-11T05:59:31.239Z,3.30
2019-01-11T06:01:57.375Z,2.73
2019-01-11T06:04:30.823Z,2.60
2019-01-11T06:07:04.610Z,1.80
2019-01-11T06:09:30.564Z,1.80
2019-01-11T06:11:56.526Z,2.10
2019-01-11T06:14:22.548Z,2.43
2019-01-11T06:16:48.500Z,2.60
2019-01-11T06:19:14.455Z,2.83
2019-01-11T06:21:40.458Z,3.20
2019-01-11T06:24:07.413Z,3.00
2019-01-11T06:26:33.367Z,3.10
2019-01-11T06:28:59.365Z,4.23
2019-01-11T06:31:25.334Z,2.67
2019-01-11T06:33:51.306Z,3.07
2019-01-11T06:36:17.829Z,4.10
2019-01-11T06:38:43.779Z,4.33
2019-01-11T06:41:09.833Z,3.37
2019-01-11T06:43:35.838Z,4.10
2019-01-11T06:46:01.789Z,3.53
2019-01-11T06:48:31.055Z,3.87
2019-01-11T06:50:57.145Z,3.67
2019-01-11T06:53:23.257Z,3.60
2019-01-11T06:55:49.320Z,3.60
2019-01-11T06:58:15.335Z,3.73
2019-01-11T07:00:41.706Z,3.90
2019-01-11T07:03:07.655Z,3.70
2019-01-11T07:05:35.253Z,7.63
2019-01-11T07:08:01.201Z,53.97
2019-01-11T07:10:27.160Z,32.20
2019-01-11T07:12:53.217Z,11.43
2019-01-11T07:15:19.166Z,4.60
2019-01-11T07:17:45.447Z,6.23
2019-01-11T07:20:13.470Z,4.63
2019-01-11T07:22:39.761Z,5.43
2019-01-11T07:25:08.509Z,5.07
2019-01-11T07:27:36.419Z,5.13
2019-01-11T07:30:06.204Z,4.70
2019-01-11T07:32:32.661Z,4.87
2019-01-11T07:34:58.659Z,4.03
2019-01-11T07:37:24.611Z,5.67
2019-01-11T07:39:51.329Z,4.53
2019-01-11T07:42:17.345Z,5.03
2019-01-11T07:44:43.294Z,5.30
2019-01-11T07:47:09.256Z,4.37
2019-01-11T07:49:35.704Z,4.80
2019-01-11T07:52:05.252Z,4.13
2019-01-11T07:54:31.219Z,4.80
2019-01-11T07:56:57.660Z,3.77
2019-01-11T07:59:23.616Z,5.57
2019-01-11T08:01:49.766Z,12.23
2019-01-11T08:04:15.805Z,5.33
2019-01-11T08:06:41.760Z,4.47
2019-01-11T08:09:07.920Z,5.67
2019-01-11T08:11:33.911Z,5.93
2019-01-11T08:13:59.880Z,5.20
2019-01-11T08:16:25.822Z,4.90
2019-01-11T08:18:52.108Z,5.10
2019-01-11T08:21:18.056Z,4.40
2019-01-11T08:23:44.004Z,4.80
2019-01-11T08:26:10.041Z,4.70
2019-01-11T08:28:36.045Z,5.00
2019-01-11T08:31:02.211Z,3.63
2019-01-11T08:33:30.138Z,4.80
2019-01-11T08:35:56.171Z,3.03
2019-01-11T08:38:22.830Z,5.60
2019-01-11T08:40:49.190Z,4.30
2019-01-11T08:43:15.143Z,5.33
2019-01-11T08:45:41.509Z,5.97
2019-01-11T08:48:07.628Z,5.13
2019-01-11T08:50:33.669Z,10.20
2019-01-11T08:53:00.417Z,43.90
2019-01-11T08:55:28.327Z,13.23
2019-01-11T08:57:54.393Z,5.23
2019-01-11T09:00:20.365Z,6.63
2019-01-11T09:02:46.503Z,6.13
2019-01-11T09:05:12.852Z,7.07
2019-01-11T09:07:39.199Z,5.03
2019-01-11T09:10:09.036Z,4.20
2019-01-11T09:12:35.203Z,5.10
2019-01-11T09:15:02.268Z,3.23
2019-01-11T09:17:28.303Z,5.33
2019-01-11T09:19:54.253Z,3.00
2019-01-11T09:22:20.514Z,5.33
2019-01-11T09:24:48.410Z,4.63
2019-01-11T09:27:14.481Z,40.43
2019-01-11T09:29:40.468Z,12.20
2019-01-11T09:32:06.888Z,17.00
2019-01-11T09:34:33.144Z,10.03
2019-01-11T09:36:59.270Z,6.00
2019-01-11T09:39:25.269Z,6.43
2019-01-11T09:41:51.230Z,6.77
2019-01-11T09:44:19.181Z,4.83
2019-01-11T09:46:45.187Z,6.90
2019-01-11T09:49:11.138Z,5.10
2019-01-11T09:51:38.409Z,5.80
2019-01-11T09:54:05.227Z,5.47
2019-01-11T09:56:31.195Z,5.20
2019-01-11T09:58:57.158Z,4.93
2019-01-11T10:01:23.262Z,5.93
2019-01-11T10:03:49.222Z,6.30
2019-01-11T10:06:15.288Z,6.67
2019-01-11T10:08:41.284Z,4.70
2019-01-11T10:11:07.354Z,9.33
2019-01-11T10:13:33.563Z,6.13
2019-01-11T10:15:59.663Z,5.43
2019-01-11T10:18:26.015Z,7.03
2019-01-11T10:20:51.961Z,7.17
2019-01-11T10:23:18.389Z,8.47
2019-01-11T10:25:44.298Z,5.37
2019-01-11T10:28:10.274Z,7.87
2019-01-11T10:30:36.277Z,5.83
2019-01-11T10:33:02.432Z,6.23
2019-01-11T10:35:28.387Z,5.63
2019-01-11T10:37:54.434Z,12.60
2019-01-11T10:40:20.384Z,8.77
2019-01-11T10:42:46.420Z,6.37
2019-01-11T10:45:17.984Z,4.30
2019-01-11T10:47:43.938Z,4.17
2019-01-11T10:50:13.620Z,5.70
2019-01-11T10:52:40.780Z,9.70
2019-01-11T10:55:09.960Z,4.83
2019-01-11T10:57:35.919Z,7.70
2019-01-11T11:00:06.880Z,3.73
2019-01-11T11:02:32.850Z,5.30
2019-01-11T11:04:58.804Z,6.20
2019-01-11T11:07:24.956Z,14.63
2019-01-11T11:09:51.907Z,19.27
2019-01-11T11:12:17.887Z,14.33
2019-01-11T11:14:43.860Z,5.60
2019-01-11T11:17:09.833Z,4.23
2019-01-11T11:19:35.818Z,5.77
2019-01-11T11:22:02.739Z,5.20
2019-01-11T11:24:28.828Z,6.57
2019-01-11T11:26:54.765Z,3.90
2019-01-11T11:29:20.759Z,6.23
2019-01-11T11:31:46.719Z,6.70
2019-01-11T11:34:12.674Z,6.67
2019-01-11T11:36:38.672Z,6.40
2019-01-11T11:39:08.232Z,6.40
2019-01-11T11:41:34.191Z,5.67
2019-01-11T11:44:00.226Z,6.40
2019-01-11T11:46:26.183Z,5.47
2019-01-11T11:48:52.152Z,5.63
2019-01-11T11:51:18.136Z,11.13
2019-01-11T11:53:45.008Z,8.20
2019-01-11T11:56:10.961Z,9.80
2019-01-11T11:58:37.302Z,14.17
2019-01-11T12:01:05.373Z,8.40
2019-01-11T12:03:31.337Z,7.50
2019-01-11T12:05:59.272Z,6.53
2019-01-11T12:08:25.228Z,5.23
2019-01-11T12:10:51.471Z,5.80
2019-01-11T12:13:17.461Z,7.70
2019-01-11T12:15:43.408Z,4.90
2019-01-11T12:18:09.567Z,5.17
2019-01-11T12:20:36.060Z,8.07
2019-01-11T12:23:02.123Z,4.97
2019-01-11T12:25:28.219Z,4.93
2019-01-11T12:27:54.248Z,8.10
2019-01-11T12:30:20.224Z,8.70
2019-01-11T12:32:46.188Z,4.60
2019-01-11T12:35:12.574Z,10.47
2019-01-11T12:37:38.837Z,50.00
2019-01-11T12:40:08.012Z,9.20
2019-01-11T12:42:34.132Z,35.57
2019-01-11T12:45:04.224Z,7.83
2019-01-11T12:47:30.179Z,5.03
2019-01-11T12:49:57.000Z,5.40
2019-01-11T12:52:22.961Z,4.23
2019-01-11T12:54:49.885Z,5.30
2019-01-11T12:57:16.412Z,6.27
2019-01-11T12:59:42.669Z,4.87
2019-01-11T13:02:08.853Z,4.83
2019-01-11T13:04:34.875Z,4.60
2019-01-11T13:07:00.986Z,6.23
2019-01-11T13:09:27.003Z,5.13
2019-01-11T13:11:53.526Z,6.23
2019-01-11T13:14:19.690Z,9.67
2019-01-11T13:16:45.849Z,7.57
2019-01-11T13:19:12.144Z,5.40
2019-01-11T13:21:38.101Z,9.87
2019-01-11T13:24:04.451Z,31.83
2019-01-11T13:26:30.571Z,25.17
2019-01-11T13:28:57.450Z,15.50
2019-01-11T13:31:23.732Z,7.77
2019-01-11T13:33:49.762Z,7.47
2019-01-11T13:36:17.615Z,7.60
2019-01-11T13:38:43.575Z,4.40
2019-01-11T13:41:11.996Z,8.10
2019-01-11T13:43:37.949Z,5.33
2019-01-11T13:46:04.095Z,4.40
2019-01-11T13:48:31.232Z,4.90
2019-01-11T13:50:57.263Z,9.13
2019-01-11T13:53:23.217Z,6.77
2019-01-11T13:55:49.344Z,5.10
2019-01-11T13:58:15.495Z,4.87
2019-01-11T14:00:41.470Z,5.80
2019-01-11T14:03:07.550Z,22.03
2019-01-11T14:05:33.587Z,31.13
2019-01-11T14:07:59.833Z,23.00
2019-01-11T14:10:26.027Z,23.60
2019-01-11T14:12:52.014Z,10.80
2019-01-11T14:15:18.091Z,4.00
2019-01-11T14:17:44.111Z,5.73
2019-01-11T14:20:10.870Z,7.87
2019-01-11T14:22:37.244Z,5.13
2019-01-11T14:25:08.387Z,7.17
2019-01-11T14:27:34.328Z,7.03
2019-01-11T14:30:00.281Z,12.20
2019-01-11T14:32:26.265Z,13.23
2019-01-11T14:34:52.241Z,9.63
2019-01-11T14:37:18.207Z,9.27
2019-01-11T14:39:44.219Z,14.23
2019-01-11T14:42:10.372Z,5.00
2019-01-11T14:44:36.331Z,7.37
2019-01-11T14:47:02.441Z,9.03
2019-01-11T14:49:28.390Z,10.83
2019-01-11T14:51:54.357Z,24.73
2019-01-11T14:54:20.343Z,43.73
2019-01-11T14:56:46.371Z,26.53
2019-01-11T14:59:12.310Z,32.90
2019-01-11T15:01:39.684Z,19.90
2019-01-11T15:04:05.700Z,14.80
2019-01-11T15:06:31.651Z,10.63
2019-01-11T15:08:57.656Z,10.50
2019-01-11T15:11:23.618Z,12.87
2019-01-11T15:13:52.387Z,14.30
2019-01-11T15:16:18.479Z,12.27
2019-01-11T15:18:44.507Z,8.40
2019-01-11T15:21:10.484Z,17.50
2019-01-11T15:23:36.523Z,8.23
2019-01-11T15:26:02.876Z,8.43
2019-01-11T15:28:28.842Z,15.03
2019-01-11T15:30:55.443Z,5.70
2019-01-11T15:33:21.415Z,10.23
2019-01-11T15:35:48.531Z,6.43
2019-01-11T15:38:18.161Z,12.30
2019-01-11T15:40:44.150Z,5.70
2019-01-11T15:43:10.300Z,22.87
2019-01-11T15:45:36.436Z,14.10
2019-01-11T15:48:02.704Z,16.13
2019-01-11T15:50:45.118Z,7.70
2019-01-11T15:53:11.094Z,13.60
2019-01-11T15:55:37.104Z,14.87
2019-01-11T15:58:04.107Z,17.97
2019-01-11T16:00:30.360Z,15.13
2019-01-11T16:02:57.232Z,13.20
2019-01-11T16:05:23.258Z,13.60
2019-01-11T16:07:50.761Z,15.33
2019-01-11T16:10:18.891Z,21.90
2019-01-11T16:12:45.881Z,21.73
2019-01-11T16:15:18.506Z,17.60
2019-01-11T16:17:46.873Z,17.87
2019-01-11T16:20:14.981Z,26.43
2019-01-11T16:22:41.344Z,16.53
2019-01-11T16:25:09.212Z,18.40
2019-01-11T16:27:39.488Z,23.83
2019-01-11T16:30:13.824Z,25.97
2019-01-11T16:32:39.994Z,18.43
2019-01-11T16:35:06.454Z,20.10
2019-01-11T16:37:32.551Z,55.23
2019-01-11T16:39:58.811Z,40.53
2019-01-11T16:42:24.774Z,20.17
2019-01-11T16:44:50.754Z,16.17
2019-01-11T16:47:17.795Z,12.27
2019-01-11T16:49:45.917Z,7.77
2019-01-11T16:52:15.285Z,8.07
2019-01-11T16:54:39.752Z,13.00
2019-01-11T16:57:05.728Z,17.97
2019-01-11T16:59:31.893Z,18.93
2019-01-11T17:01:58.009Z,12.10
2019-01-11T17:04:24.014Z,14.13
2019-01-11T17:06:49.972Z,12.07
2019-01-11T17:09:15.996Z,11.07
2019-01-11T17:11:42.000Z,12.63
2019-01-11T17:14:08.012Z,12.03
2019-01-11T17:16:34.005Z,11.10
2019-01-11T17:19:00.271Z,11.33
2019-01-11T17:21:26.236Z,12.47
2019-01-11T17:23:53.496Z,15.67
2019-01-11T17:26:19.719Z,14.73
2019-01-11T17:28:46.044Z,14.90
2019-01-11T17:31:12.087Z,16.83
2019-01-11T17:33:38.243Z,17.20
2019-01-11T17:36:04.879Z,20.60
2019-01-11T17:38:30.895Z,23.40
2019-01-11T17:40:57.077Z,23.77
2019-01-11T17:43:23.044Z,23.33
2019-01-11T17:45:49.466Z,58.33
2019-01-11T17:48:15.436Z,21.93
2019-01-11T17:50:41.396Z,12.87
2019-01-11T17:53:07.432Z,13.13
2019-01-11T17:55:35.572Z,14.53
2019-01-11T17:58:01.748Z,17.83
2019-01-11T18:00:28.736Z,12.67
2019-01-11T18:02:56.067Z,11.00
2019-01-11T18:05:22.035Z,10.50
2019-01-11T18:07:48.147Z,11.30
2019-01-11T18:10:14.314Z,10.47
2019-01-11T18:12:40.570Z,12.47
2019-01-11T18:15:12.475Z,10.73
2019-01-11T18:17:38.432Z,55.83
2019-01-11T18:20:13.084Z,25.80
2019-01-11T18:22:39.194Z,31.33
2019-01-11T18:25:05.833Z,21.97
2019-01-11T18:27:32.039Z,9.43
2019-01-11T18:29:58.030Z,8.83
2019-01-11T18:32:23.999Z,10.03
2019-01-11T18:34:49.960Z,9.80
2019-01-11T18:37:16.063Z,7.60
2019-01-11T18:39:42.443Z,8.57
2019-01-11T18:42:08.421Z,7.90
2019-01-11T18:44:34.790Z,9.93
2019-01-11T18:47:00.792Z,9.60
2019-01-11T18:49:26.748Z,7.30
2019-01-11T18:51:52.814Z,6.50
2019-01-11T18:54:18.809Z,4.97
2019-01-11T18:56:44.786Z,6.83
2019-01-11T18:59:13.675Z,6.33
2019-01-11T19:01:39.714Z,7.10
2019-01-11T19:04:05.678Z,5.70
2019-01-11T19:06:31.686Z,5.47
2019-01-11T19:08:57.688Z,6.07
2019-01-11T19:11:23.827Z,5.40
2019-01-11T19:13:49.816Z,4.10
2019-01-11T19:16:15.955Z,4.20
2019-01-11T19:18:41.931Z,4.43
2019-01-11T19:21:10.217Z,5.80
2019-01-11T19:23:36.355Z,7.03
2019-01-11T19:26:02.947Z,7.23
2019-01-11T19:28:28.946Z,7.20
2019-01-11T19:30:54.953Z,8.10
2019-01-11T19:33:21.035Z,8.97
2019-01-11T19:35:47.044Z,9.23
2019-01-11T19:38:12.994Z,8.50
2019-01-11T19:40:38.952Z,8.67
2019-01-11T19:43:05.036Z,7.90
2019-01-11T19:45:30.994Z,7.47
2019-01-11T19:47:57.506Z,8.17
2019-01-11T19:50:24.083Z,7.50
2019-01-11T19:52:52.417Z,8.50
2019-01-11T19:55:18.911Z,7.57
2019-01-11T19:57:45.062Z,8.60
2019-01-11T20:00:15.060Z,9.90
2019-01-11T20:02:41.292Z,9.40
2019-01-11T20:05:08.764Z,9.03
2019-01-11T20:07:34.939Z,8.67
2019-01-11T20:10:05.963Z,8.50
2019-01-11T20:12:32.042Z,8.17
2019-01-11T20:15:00.215Z,13.30
2019-01-11T20:17:26.288Z,12.97
2019-01-11T20:19:52.245Z,12.57
2019-01-11T20:22:18.225Z,11.83
2019-01-11T20:24:48.355Z,10.67
2019-01-11T20:27:14.721Z,8.37
2019-01-11T20:29:40.907Z,7.33
2019-01-11T20:32:07.027Z,6.03
2019-01-11T20:34:33.492Z,6.93
2019-01-11T20:37:03.279Z,10.13
2019-01-11T20:39:29.392Z,11.03
2019-01-11T20:41:55.492Z,14.07
2019-01-11T20:44:21.458Z,12.47
2019-01-11T20:46:47.596Z,12.83
2019-01-11T20:49:14.405Z,13.03
2019-01-11T20:51:40.377Z,15.13
2019-01-11T20:54:06.584Z,17.13
2019-01-11T20:56:33.160Z,16.37
2019-01-11T20:58:59.135Z,17.60
2019-01-11T21:01:25.230Z,16.40
2019-01-11T21:03:51.785Z,18.07
2019-01-11T21:06:17.965Z,17.37
2019-01-11T21:08:43.998Z,17.50
2019-01-11T21:11:09.967Z,14.97
2019-01-11T21:13:35.940Z,12.07
2019-01-11T21:16:03.374Z,9.97
2019-01-11T21:18:29.643Z,9.73
2019-01-11T21:20:55.617Z,8.60
2019-01-11T21:23:22.320Z,7.40
2019-01-11T21:25:51.072Z,6.63
2019-01-11T21:28:17.056Z,6.70
2019-01-11T21:30:43.397Z,7.20
2019-01-11T21:33:09.404Z,7.00
2019-01-11T21:35:35.396Z,7.07
2019-01-11T21:38:01.417Z,9.43
2019-01-11T21:40:27.597Z,11.27
2019-01-11T21:42:53.876Z,12.37
2019-01-11T21:45:21.092Z,27.57
2019-01-11T21:47:47.362Z,41.80
2019-01-11T21:50:15.966Z,24.20
2019-01-11T21:52:42.112Z,23.87
2019-01-11T21:55:09.086Z,18.50
2019-01-11T21:57:35.048Z,18.07
2019-01-11T22:00:01.467Z,16.13
2019-01-11T22:02:27.418Z,18.83
2019-01-11T22:04:53.810Z,18.83
2019-01-11T22:07:19.916Z,19.43
2019-01-11T22:09:45.899Z,17.37
2019-01-11T22:12:13.043Z,15.70
2019-01-11T22:14:39.072Z,15.53
2019-01-11T22:17:05.285Z,17.73
2019-01-11T22:19:31.248Z,20.07
2019-01-11T22:21:57.443Z,18.13
2019-01-11T22:24:23.398Z,14.63
2019-01-11T22:26:49.504Z,13.83
2019-01-11T22:29:17.481Z,11.17
2019-01-11T22:31:43.480Z,7.10
2019-01-11T22:34:09.593Z,7.90
2019-01-11T22:36:35.615Z,8.40
2019-01-11T22:39:02.592Z,9.13
2019-01-11T22:41:28.969Z,11.50
2019-01-11T22:43:54.955Z,14.57
2019-01-11T22:46:20.919Z,20.93
2019-01-11T22:48:46.877Z,27.10
2019-01-11T22:51:13.695Z,30.77
2019-01-11T22:53:39.658Z,27.63
2019-01-11T22:56:05.609Z,22.33
2019-01-11T22:58:31.644Z,23.50
2019-01-11T23:01:01.399Z,47.50
2019-01-11T23:03:31.155Z,29.60
2019-01-11T23:06:08.896Z,18.93
2019-01-11T23:08:29.836Z,21.37
2019-01-11T23:11:29.702Z,12.97
2019-01-11T23:13:55.656Z,15.03
2019-01-11T23:16:25.409Z,16.10
2019-01-11T23:18:53.921Z,17.57
2019-01-11T23:21:20.385Z,21.57
2019-01-11T23:23:46.360Z,25.83
2019-01-11T23:26:12.368Z,30.10
2019-01-11T23:28:38.918Z,29.27
2019-01-11T23:31:05.679Z,28.27
2019-01-11T23:33:32.105Z,24.77
2019-01-11T23:35:58.393Z,22.37
2019-01-11T23:38:24.662Z,21.10
2019-01-11T23:40:50.834Z,18.57
2019-01-11T23:43:16.799Z,16.43
2019-01-11T23:45:42.883Z,15.37
2019-01-11T23:48:08.868Z,14.53
2019-01-11T23:50:34.827Z,13.97
2019-01-11T23:53:00.873Z,12.30
2019-01-11T23:55:27.181Z,12.07
2019-01-11T23:57:53.127Z,13.60
